createdAt,value
2023-01-28T00:00:29.898Z,2.92
2023-01-28T00:03:16.006Z,3.10
2023-01-28T00:06:03.339Z,3.00
2023-01-28T00:08:48.796Z,2.13
2023-01-28T00:11:34.018Z,3.58
2023-01-28T00:14:19.867Z,3.35
2023-01-28T00:17:06.155Z,2.63
2023-01-28T00:19:51.299Z,3.22
2023-01-28T00:22:36.362Z,4.50
2023-01-28T00:25:21.454Z,3.17
2023-01-28T00:28:06.887Z,2.70
2023-01-28T00:30:52.122Z,3.38
2023-01-28T00:33:37.778Z,2.90
2023-01-28T00:36:24.821Z,2.83
2023-01-28T00:39:14.890Z,3.05
2023-01-28T00:42:00.867Z,2.60
2023-01-28T00:44:46.116Z,2.60
2023-01-28T00:47:31.259Z,2.92
2023-01-28T00:50:16.853Z,3.63
2023-01-28T00:53:01.978Z,3.95
2023-01-28T00:55:47.199Z,3.03
2023-01-28T00:58:34.494Z,2.75
2023-01-28T01:47:18.538Z,2.53
2023-01-28T01:50:18.217Z,4.15
2023-01-28T01:53:09.744Z,2.80
2023-01-28T01:56:00.777Z,3.28
2023-01-28T01:58:50.688Z,3.03
2023-01-28T02:47:38.201Z,2.67
2023-01-28T02:50:26.049Z,3.17
2023-01-28T02:53:44.190Z,3.03
2023-01-28T02:56:48.499Z,2.33
2023-01-28T02:59:51.694Z,2.00
2023-01-28T03:48:31.720Z,2.97
2023-01-28T03:51:19.583Z,2.72
2023-01-28T03:54:05.957Z,2.55
2023-01-28T03:56:51.119Z,2.75
2023-01-28T03:59:36.375Z,3.03
2023-01-28T04:48:17.741Z,1.70
2023-01-28T04:51:26.181Z,2.30
2023-01-28T04:54:46.504Z,1.48
2023-01-28T04:57:31.978Z,2.13
2023-01-28T05:46:15.566Z,1.35
2023-01-28T05:49:20.948Z,1.83
2023-01-28T05:52:16.174Z,2.40
2023-01-28T05:55:01.657Z,1.73
2023-01-28T05:57:47.845Z,1.58
2023-01-28T06:00:34.558Z,3.00
2023-01-28T06:03:22.352Z,1.50
2023-01-28T06:06:07.912Z,3.17
2023-01-28T06:08:53.557Z,2.15
2023-01-28T06:11:45.644Z,1.67
2023-01-28T06:14:32.223Z,1.77
2023-01-28T06:17:49.943Z,2.43
2023-01-28T06:20:45.436Z,2.40
2023-01-28T06:23:30.676Z,2.53
2023-01-28T06:26:16.135Z,2.03
2023-01-28T06:29:03.519Z,1.52
2023-01-28T06:31:48.830Z,2.17
2023-01-28T06:34:34.133Z,2.05
2023-01-28T06:37:19.452Z,2.97
2023-01-28T06:40:05.844Z,2.13
2023-01-28T06:42:51.396Z,1.85
2023-01-28T06:45:36.651Z,2.03
2023-01-28T06:48:22.297Z,1.85
2023-01-28T06:51:07.770Z,2.05
2023-01-28T06:53:52.947Z,2.20
2023-01-28T06:56:38.198Z,3.50
2023-01-28T06:59:23.661Z,1.97
2023-01-28T07:02:11.401Z,2.72
2023-01-28T07:04:56.471Z,2.30
2023-01-28T07:07:42.258Z,1.83
2023-01-28T07:10:27.625Z,2.55
2023-01-28T07:13:13.306Z,2.00
2023-01-28T07:15:58.851Z,2.35
2023-01-28T07:18:44.493Z,1.52
2023-01-28T07:21:30.008Z,1.95
2023-01-28T07:24:15.333Z,2.00
2023-01-28T07:27:00.387Z,2.40
2023-01-28T07:29:45.632Z,2.22
2023-01-28T07:32:30.981Z,1.95
2023-01-28T07:35:16.449Z,1.27
2023-01-28T07:38:01.777Z,2.00
2023-01-28T07:40:47.671Z,2.40
2023-01-28T07:43:32.929Z,1.98
2023-01-28T07:46:18.031Z,2.08
2023-01-28T07:49:03.694Z,2.22
2023-01-28T07:51:50.871Z,2.40
2023-01-28T07:54:35.979Z,2.20
2023-01-28T07:57:23.548Z,1.58
2023-01-28T08:00:09.440Z,2.20
2023-01-28T08:02:59.246Z,2.08
2023-01-28T08:05:47.101Z,2.03
2023-01-28T08:08:32.819Z,2.63
2023-01-28T08:11:17.912Z,2.65
2023-01-28T08:14:03.270Z,2.15
2023-01-28T08:16:48.795Z,1.92
2023-01-28T08:19:34.579Z,2.38
2023-01-28T08:22:25.867Z,2.43
2023-01-28T08:25:11.489Z,2.15
2023-01-28T08:27:56.675Z,2.10
2023-01-28T08:30:42.865Z,1.77
2023-01-28T08:33:28.118Z,2.28
2023-01-28T08:36:13.304Z,1.93
2023-01-28T08:38:59.214Z,2.05
2023-01-28T08:41:44.398Z,2.10
2023-01-28T08:44:29.557Z,1.83
2023-01-28T08:47:15.348Z,2.15
2023-01-28T08:50:00.461Z,1.73
2023-01-28T08:52:48.700Z,1.92
2023-01-28T08:55:36.203Z,2.20
2023-01-28T08:58:21.680Z,1.70
2023-01-28T09:01:07.338Z,2.38
2023-01-28T09:03:52.220Z,2.37
2023-01-28T09:06:37.665Z,2.10
2023-01-28T09:09:22.888Z,1.73
2023-01-28T09:12:10.994Z,2.30
2023-01-28T09:14:56.122Z,2.63
2023-01-28T09:17:41.289Z,1.63
2023-01-28T09:20:27.675Z,2.72
2023-01-28T09:23:13.739Z,1.65
2023-01-28T09:26:02.825Z,1.75
2023-01-28T09:28:48.570Z,2.65
2023-01-28T09:31:33.715Z,2.30
2023-01-28T09:34:19.079Z,2.03
2023-01-28T09:37:04.437Z,1.73
2023-01-28T09:39:49.998Z,1.95
2023-01-28T09:43:11.600Z,2.08
2023-01-28T09:46:00.702Z,1.70
2023-01-28T09:48:52.714Z,2.35
2023-01-28T09:51:45.081Z,2.28
2023-01-28T09:54:40.886Z,2.10
2023-01-28T09:57:36.783Z,1.73
2023-01-28T10:00:51.397Z,1.47
2023-01-28T10:04:01.832Z,1.92
2023-01-28T10:06:52.976Z,2.08
2023-01-28T10:09:47.209Z,1.98
2023-01-28T10:12:51.533Z,1.92
2023-01-28T10:16:21.313Z,2.10
2023-01-28T10:19:17.088Z,1.75
2023-01-28T10:22:07.671Z,2.55
2023-01-28T10:24:58.360Z,1.60
2023-01-28T10:27:44.205Z,1.63
2023-01-28T10:30:37.804Z,2.13
2023-01-28T10:33:31.485Z,1.33
2023-01-28T10:36:18.275Z,1.92
2023-01-28T10:39:04.431Z,2.40
2023-01-28T10:41:57.816Z,1.38
2023-01-28T10:44:45.611Z,2.33
2023-01-28T10:47:41.008Z,2.42
2023-01-28T10:50:29.221Z,1.70
2023-01-28T10:53:14.435Z,1.25
2023-01-28T10:56:00.955Z,1.63
2023-01-28T10:58:54.028Z,2.83
2023-01-28T11:01:40.466Z,1.70
2023-01-28T11:04:31.056Z,2.03
2023-01-28T11:07:20.594Z,1.70
2023-01-28T11:10:25.472Z,2.38
2023-01-28T11:13:26.558Z,1.23
2023-01-28T11:16:18.848Z,1.30
2023-01-28T11:19:06.264Z,2.40
2023-01-28T11:21:55.953Z,1.40
2023-01-28T11:24:42.972Z,1.67
2023-01-28T11:27:31.200Z,1.93
2023-01-28T11:30:33.880Z,1.88
2023-01-28T11:33:22.670Z,1.70
2023-01-28T11:36:15.872Z,2.13
2023-01-28T11:39:05.710Z,1.60
2023-01-28T11:41:52.220Z,1.67
2023-01-28T11:44:38.531Z,1.77
2023-01-28T11:47:33.744Z,1.70
2023-01-28T11:50:51.304Z,1.60
2023-01-28T11:53:49.866Z,2.05
2023-01-28T11:57:01.046Z,1.77
2023-01-28T11:59:57.972Z,1.60
2023-01-28T12:03:24.924Z,1.83
2023-01-28T12:06:22.500Z,2.17
2023-01-28T12:09:20.050Z,2.10
2023-01-28T12:12:32.235Z,1.93
2023-01-28T12:15:46.821Z,1.80
2023-01-28T12:18:52.725Z,1.73
2023-01-28T12:22:01.569Z,1.60
2023-01-28T12:25:07.460Z,1.20
2023-01-28T12:27:56.037Z,1.90
2023-01-28T12:31:00.357Z,1.67
2023-01-28T12:33:54.760Z,1.70
2023-01-28T12:36:54.656Z,1.70
2023-01-28T12:39:39.610Z,1.58
2023-01-28T12:42:40.026Z,1.60
2023-01-28T12:45:40.831Z,2.50
2023-01-28T12:48:37.399Z,1.70
2023-01-28T12:51:29.170Z,1.50
2023-01-28T12:54:32.898Z,1.73
2023-01-28T12:57:27.775Z,1.50
2023-01-28T13:00:23.053Z,1.63
2023-01-28T13:03:25.280Z,1.90
2023-01-28T13:06:42.303Z,1.13
2023-01-28T13:09:30.029Z,2.00
2023-01-28T13:12:16.836Z,1.70
2023-01-28T13:15:02.860Z,1.75
2023-01-28T13:18:06.320Z,1.77
2023-01-28T13:20:54.812Z,2.15
2023-01-28T13:23:44.222Z,2.30
2023-01-28T13:26:43.801Z,1.80
2023-01-28T13:29:32.211Z,1.83
2023-01-28T13:32:35.936Z,2.03
2023-01-28T13:35:54.593Z,2.25
2023-01-28T13:38:40.211Z,1.65
2023-01-28T13:41:25.186Z,3.33
2023-01-28T13:44:26.003Z,2.78
2023-01-28T13:47:12.799Z,1.50
2023-01-28T13:50:04.478Z,2.92
2023-01-28T13:53:18.253Z,1.98
2023-01-28T13:56:10.320Z,2.70
2023-01-28T13:59:19.401Z,2.05
2023-01-28T14:02:13.629Z,2.40
2023-01-28T14:05:20.233Z,2.10
2023-01-28T14:08:20.541Z,1.73
2023-01-28T14:11:24.968Z,2.30
2023-01-28T14:14:39.582Z,2.95
2023-01-28T14:17:39.651Z,2.25
2023-01-28T14:20:26.376Z,2.55
2023-01-28T14:23:22.329Z,2.67
2023-01-28T14:26:23.950Z,2.67
2023-01-28T14:29:18.151Z,2.95
2023-01-28T14:32:14.690Z,2.45
2023-01-28T14:35:07.476Z,1.83
2023-01-28T14:37:53.308Z,1.85
2023-01-28T14:40:40.154Z,3.10
2023-01-28T14:43:27.618Z,3.05
2023-01-28T14:46:27.940Z,1.60
2023-01-28T14:49:34.641Z,2.42
2023-01-28T14:52:47.831Z,2.72
2023-01-28T14:55:39.127Z,3.17
2023-01-28T14:58:39.071Z,3.55
2023-01-28T15:01:26.469Z,2.13
2023-01-28T15:04:34.711Z,2.10
2023-01-28T15:07:27.604Z,2.03
2023-01-28T15:10:16.356Z,2.23
2023-01-28T15:13:12.514Z,2.20
2023-01-28T15:16:00.863Z,2.40
2023-01-28T15:18:48.127Z,3.15
2023-01-28T15:21:35.025Z,2.45
2023-01-28T15:24:20.256Z,2.27
2023-01-28T15:27:05.524Z,3.28
2023-01-28T15:29:56.330Z,4.18
2023-01-28T15:32:42.151Z,2.28
2023-01-28T15:35:28.267Z,2.25
2023-01-28T15:38:13.877Z,2.17
2023-01-28T15:41:01.965Z,2.78
2023-01-28T15:43:49.574Z,2.72
2023-01-28T15:46:40.073Z,4.10
2023-01-28T15:49:31.028Z,3.10
2023-01-28T15:52:16.347Z,3.77
2023-01-28T15:55:02.344Z,3.67
2023-01-28T15:57:47.565Z,3.85
2023-01-28T16:00:33.364Z,2.35
2023-01-28T16:03:21.205Z,3.88
2023-01-28T16:06:11.697Z,2.80
2023-01-28T16:09:03.709Z,3.53
2023-01-28T16:11:49.638Z,3.33
2023-01-28T16:14:45.442Z,2.72
2023-01-28T16:17:38.758Z,2.67
2023-01-28T16:20:26.555Z,3.97
2023-01-28T16:23:21.878Z,3.00
2023-01-28T16:26:24.894Z,1.88
2023-01-28T16:29:15.476Z,3.00
2023-01-28T16:32:03.062Z,2.97
2023-01-28T16:34:48.429Z,3.03
2023-01-28T16:37:33.809Z,4.50
2023-01-28T16:40:22.979Z,4.57
2023-01-28T16:43:14.223Z,4.35
2023-01-28T16:45:59.741Z,3.45
2023-01-28T16:48:45.291Z,3.23
2023-01-28T16:51:30.507Z,4.18
2023-01-28T16:54:16.784Z,3.63
2023-01-28T16:57:02.609Z,3.47
2023-01-28T16:59:48.354Z,4.75
2023-01-28T17:02:34.184Z,4.00
2023-01-28T17:05:21.652Z,4.95
2023-01-28T17:08:07.129Z,4.03
2023-01-28T17:10:54.774Z,4.25
2023-01-28T17:13:41.362Z,4.35
2023-01-28T17:16:29.149Z,3.77
2023-01-28T17:19:17.739Z,4.30
2023-01-28T17:22:03.120Z,3.25
2023-01-28T17:24:48.215Z,4.50
2023-01-28T17:27:33.176Z,4.75
2023-01-28T17:30:20.549Z,5.37
2023-01-28T17:33:06.734Z,4.72
2023-01-28T17:35:52.380Z,4.65
2023-01-28T17:38:38.312Z,4.05
2023-01-28T17:41:23.368Z,5.53
2023-01-28T17:44:11.904Z,4.87
2023-01-28T17:46:57.162Z,5.05
2023-01-28T17:49:42.723Z,4.10
2023-01-28T17:52:28.020Z,4.05
2023-01-28T17:55:13.522Z,4.28
2023-01-28T17:57:59.328Z,4.97
2023-01-28T18:00:44.682Z,4.57
2023-01-28T18:03:29.930Z,4.13
2023-01-28T18:06:15.615Z,5.60
2023-01-28T18:09:00.816Z,6.55
2023-01-28T18:11:46.212Z,3.63
2023-01-28T18:14:31.542Z,5.20
2023-01-28T18:17:17.065Z,4.45
2023-01-28T18:20:03.927Z,3.78
2023-01-28T18:22:49.001Z,4.57
2023-01-28T18:25:34.984Z,3.87
2023-01-28T18:28:21.117Z,4.32
2023-01-28T18:31:07.524Z,4.63
2023-01-28T18:33:53.184Z,3.88
2023-01-28T18:36:38.594Z,4.50
2023-01-28T18:39:25.697Z,3.87
2023-01-28T18:42:11.083Z,4.70
2023-01-28T18:44:56.687Z,8.80
2023-01-28T18:47:42.153Z,9.38
2023-01-28T18:50:27.674Z,7.75
2023-01-28T18:53:13.137Z,8.27
2023-01-28T18:56:02.269Z,7.05
2023-01-28T18:58:47.872Z,7.53
2023-01-28T19:01:35.532Z,7.07
2023-01-28T19:04:21.253Z,6.78
2023-01-28T19:07:08.457Z,6.60
2023-01-28T19:09:54.151Z,6.38
2023-01-28T19:12:39.420Z,6.22
2023-01-28T19:15:25.040Z,6.93
2023-01-28T19:18:10.634Z,6.80
2023-01-28T19:20:56.208Z,6.53
2023-01-28T19:23:49.867Z,6.22
2023-01-28T19:26:37.017Z,5.55
2023-01-28T19:29:23.522Z,6.50
2023-01-28T19:32:09.361Z,5.82
2023-01-28T19:34:55.259Z,7.00
2023-01-28T19:37:41.004Z,7.05
2023-01-28T19:40:26.661Z,7.07
2023-01-28T19:43:11.996Z,6.53
2023-01-28T19:45:59.234Z,7.18
2023-01-28T19:48:45.590Z,7.53
2023-01-28T19:51:31.856Z,6.60
2023-01-28T19:54:17.586Z,6.70
2023-01-28T19:57:03.069Z,6.82
2023-01-28T19:59:48.428Z,6.53
2023-01-28T20:02:33.968Z,6.50
2023-01-28T20:05:19.609Z,6.07
2023-01-28T20:08:05.404Z,7.07
2023-01-28T20:10:50.920Z,6.32
2023-01-28T20:13:37.852Z,6.03
2023-01-28T20:16:28.611Z,6.60
2023-01-28T20:19:17.694Z,7.28
2023-01-28T20:22:03.283Z,6.60
2023-01-28T20:24:50.597Z,7.22
2023-01-28T20:27:36.101Z,7.38
2023-01-28T20:30:26.190Z,6.57
2023-01-28T20:33:11.816Z,6.88
2023-01-28T20:36:06.245Z,8.85
2023-01-28T20:38:51.465Z,9.95
2023-01-28T20:41:36.929Z,8.90
2023-01-28T20:44:22.591Z,8.87
2023-01-28T20:47:08.361Z,7.60
2023-01-28T20:49:53.378Z,9.52
2023-01-28T20:52:38.848Z,9.90
2023-01-28T20:55:24.327Z,10.18
2023-01-28T20:58:09.883Z,9.40
2023-01-28T21:00:55.267Z,8.70
2023-01-28T21:03:40.375Z,8.77
2023-01-28T21:06:26.047Z,8.50
2023-01-28T21:09:11.744Z,9.50
2023-01-28T21:11:56.980Z,8.67
2023-01-28T21:14:42.242Z,8.77
2023-01-28T21:17:27.713Z,9.00
2023-01-28T21:20:13.373Z,10.10
2023-01-28T21:22:59.171Z,9.63
2023-01-28T21:25:51.171Z,8.37
2023-01-28T21:28:37.029Z,8.43
2023-01-28T21:31:27.853Z,9.27
2023-01-28T21:34:14.557Z,9.13
2023-01-28T21:36:59.919Z,8.23
2023-01-28T21:39:44.971Z,8.27
2023-01-28T21:42:30.347Z,9.43
2023-01-28T21:45:15.567Z,9.20
2023-01-28T21:48:01.169Z,9.18
2023-01-28T21:51:04.957Z,8.13
2023-01-28T21:53:50.461Z,9.13
2023-01-28T21:56:36.415Z,8.40
2023-01-28T21:59:30.756Z,8.00
2023-01-28T22:02:16.278Z,9.57
2023-01-28T22:05:01.592Z,10.43
2023-01-28T22:07:46.877Z,11.10
2023-01-28T22:10:32.120Z,11.95
2023-01-28T22:13:17.575Z,11.82
2023-01-28T22:16:04.576Z,12.60
2023-01-28T22:18:50.176Z,12.68
2023-01-28T22:21:41.272Z,11.97
2023-01-28T22:24:27.027Z,13.02
2023-01-28T22:27:13.940Z,12.85
2023-01-28T22:29:58.961Z,12.63
2023-01-28T22:32:44.138Z,11.93
2023-01-28T22:35:29.525Z,12.17
2023-01-28T22:38:14.871Z,13.82
2023-01-28T22:41:05.308Z,12.85
2023-01-28T22:43:54.385Z,13.00
2023-01-28T22:46:39.862Z,13.43
2023-01-28T22:49:26.867Z,13.57
2023-01-28T22:52:12.209Z,13.13
2023-01-28T22:54:57.636Z,12.93
2023-01-28T22:57:42.901Z,12.63
2023-01-28T23:00:28.717Z,13.77
2023-01-28T23:03:14.416Z,12.20
2023-01-28T23:06:01.187Z,12.82
2023-01-28T23:08:47.608Z,12.95
2023-01-28T23:11:33.267Z,12.27
2023-01-28T23:14:37.239Z,12.57
2023-01-28T23:17:41.150Z,12.57
2023-01-28T23:20:44.947Z,11.65
2023-01-28T23:23:48.909Z,12.30
2023-01-28T23:26:34.115Z,12.73
2023-01-28T23:29:25.629Z,11.68
2023-01-28T23:32:11.352Z,12.50
2023-01-28T23:34:56.366Z,11.70
2023-01-28T23:37:41.670Z,11.85
2023-01-28T23:40:27.349Z,11.80
2023-01-28T23:43:12.832Z,11.02
